Aviation Digital Data Service (ADDS)

Output produced by TAFs form (1307 UTC 27 November 2014)
found at http://aviationweather.gov/adds/tafs/
 
KDRO 271126Z 2712/2812 03004KT P6SM SKC 
     FM271900 12006KT P6SM SCT250 
     FM280100 05006KT P6SM SKC